Benton, IL (62812)

1:19 PM CST on February 22, 2017 (GMT -0600)
Northeast of Benton | | Change Station

Elev 433 ft 38.01 °N, 88.90 °W | Updated 3 minutes ago

Partly Cloudy
Partly Cloudy
71.5 °F
Feels Like 75 °F
N
7.0
Wind Variable Wind from SW
Gusts 17.0 mph

Today
High -- | Low -- °F
--% Chance of Precip.
Yesterday
High -- | Low -- °F
Precip. -- in
Pressure 29.83 in
Visibility 20.0 miles
Clouds Scattered Clouds 2900 ft
Heat Index 75 °F
Dew Point 59 °F
Humidity 64%
Rainfall 0.00 in
Snow Depth Not available.
6:36 AM 5:42 PM
Waning Crescent, 15% visible
METAR KMWA 221845Z 21010KT 20SM SCT029 22/14 A2983
Pressure 29.83 in
Visibility 20.0 miles
Clouds Scattered Clouds 2900 ft
Heat Index 75 °F
Dew Point 59 °F
Humidity 64%
Rainfall 0.00 in
Snow Depth Not available.
6:36 AM 5:42 PM
Waning Crescent, 15% visible
METAR KMWA 221845Z 21010KT 20SM SCT029 22/14 A2983

Get Your Daily Forecast Email!

Thanks for signing up!

Be on the lookout for a verification email in your inbox.

You'll start receiving the daily forecast at 8 AM.

×

10-Day Weather Forecast

Almanac

Astronomy

Feb. 22, 2017 Rise Set
Actual Time
Civil Twilight
Nautical Twilight
Astronomical Twilight
Moon
Length of Visible Light
Length of Day
Tomorrow will be .
, % of the Moon is Illuminated

Today's Extremes

State Highs State Lows

Community

WunderPhotos

Upload Photos

1,962,540 photos uploaded!

WunderBlog® & News

Nearby

Air Quality

  Air Quality AQ Index Pollutant
Not available.

Snow Depth

Station Depth Elevation

Earthquake Activity

City Distance Mag. Time & Date
Minimum magnitude displayed is 2.5.

Coastal Water Temperatures

Place Temperature

Stations

Nearby Weather Stations

Station Location Temp. Windchill Dew Point Humidity Wind Precip. Elev Updated Type
                   

Watches & Warnings

There are currently no watches in effect.